^^
Station Historical Data
Daily Summary for January 18, 2018 Units:  Both    English   Metric
« Previous Day
Next Day »
Daily Weekly Monthly Yearly Custom
  High: Low: Average:
Temperature: TemperatureF °F /  -17.8 °C 65.5 °F /  18.6 °C 77.6 °F /  25.3 °C
Dew Point: DewpointF °F /  -17.8 °C 46.4 °F /  8 °C 49.8 °F /  9.9 °C
Humidity: Humidity% 27% 39%
Wind Speed: WindSpeedMPHmph /  0km/h - -15.4mph /  -24.8km/h
Wind Gust: WindSpeedGustMPHmph /  0km/h - -
Wind- -
Pressure: PressureIn in /  0 hPa 29.57 in /  1001.2 hPa -
Precipitation: 0.00 in /  0 mm    
Historical Graphs
 
 
Tabular Data for January 18, 2018
Time Temperature Dew Point Pressure Wind Wind Speed Wind Gust Humidity Rainfall Rate (Hourly) solar Conditions
TemperatureF °F /  -17.8 °C DewpointF °F /  -17.8 °C PressureInin /  0hPa Calm     Humidity% HourlyPrecipInin /  0mm SoftwareType W/m2 Conditions
09:20 65.5 °F /  18.6 °C 53.8 °F /  12.1 °C 29.68in /  1005hPa North -999.9mph /  -1609.1km/h -999.0mph /  -1607.7km/h 66% 0.00in /  0mm meteobridge W/m2
09:25 66.0 °F /  18.9 °C 54.3 °F /  12.4 °C 29.68in /  1005hPa North 11.0mph /  17.7km/h 13.0mph /  20.9km/h 66% 0.00in /  0mm meteobridge W/m2
09:32 65.7 °F /  18.7 °C 54.0 °F /  12.2 °C 29.68in /  1005hPa NE 8.9mph /  14.3km/h 14.0mph /  22.5km/h 66% 0.00in /  0mm meteobridge W/m2
09:38 66.0 °F /  18.9 °C 54.0 °F /  12.2 °C 29.68in /  1005hPa NNE 8.9mph /  14.3km/h 12.0mph /  19.3km/h 65% 0.00in /  0mm meteobridge W/m2
09:44 66.6 °F /  19.2 °C 54.0 °F /  12.2 °C 29.68in /  1005hPa North 14.1mph /  22.7km/h 14.1mph /  22.7km/h 64% 0.00in /  0mm meteobridge W/m2
09:50 66.7 °F /  19.3 °C 54.1 °F /  12.3 °C 29.68in /  1005hPa North 8.1mph /  13km/h 13.0mph /  20.9km/h 64% 0.00in /  0mm meteobridge W/m2
09:56 66.9 °F /  19.4 °C 54.3 °F /  12.4 °C 29.69in /  1005.3hPa North 6.9mph /  11.1km/h 11.0mph /  17.7km/h 64% 0.00in /  0mm meteobridge W/m2
10:02 66.9 °F /  19.4 °C 54.3 °F /  12.4 °C 29.69in /  1005.3hPa NNE 11.0mph /  17.7km/h 15.0mph /  24.1km/h 64% 0.00in /  0mm meteobridge W/m2
10:08 67.3 °F /  19.6 °C 54.7 °F /  12.6 °C 29.69in /  1005.3hPa NNW 8.9mph /  14.3km/h 13.0mph /  20.9km/h 64% 0.00in /  0mm meteobridge W/m2
10:14 67.6 °F /  19.8 °C 54.7 °F /  12.6 °C 29.70in /  1005.6hPa NNE 11.0mph /  17.7km/h 14.0mph /  22.5km/h 63% 0.00in /  0mm meteobridge W/m2
10:21 67.5 °F /  19.7 °C 54.5 °F /  12.5 °C 29.70in /  1005.6hPa NNE 8.9mph /  14.3km/h 13.0mph /  20.9km/h 63% 0.00in /  0mm meteobridge W/m2
10:27 67.8 °F /  19.9 °C 54.7 °F /  12.6 °C 29.70in /  1005.6hPa NNE 12.1mph /  19.5km/h 14.0mph /  22.5km/h 63% 0.00in /  0mm meteobridge W/m2
10:33 68.5 °F /  20.3 °C 54.1 °F /  12.3 °C 29.70in /  1005.6hPa North 13.0mph /  20.9km/h 18.0mph /  29km/h 60% 0.00in /  0mm meteobridge W/m2
10:39 68.9 °F /  20.5 °C 53.6 °F /  12 °C 29.70in /  1005.6hPa NNW 8.1mph /  13km/h 16.0mph /  25.7km/h 58% 0.00in /  0mm meteobridge W/m2
10:45 69.1 °F /  20.6 °C 53.2 °F /  11.8 °C 29.71in /  1006hPa North 16.1mph /  25.9km/h 16.1mph /  25.9km/h 57% 0.00in /  0mm meteobridge W/m2
10:51 69.4 °F /  20.8 °C 53.1 °F /  11.7 °C 29.70in /  1005.6hPa North 8.9mph /  14.3km/h 16.0mph /  25.7km/h 56% 0.00in /  0mm meteobridge W/m2
10:57 70.2 °F /  21.2 °C 54.1 °F /  12.3 °C 29.70in /  1005.6hPa NNE 6.9mph /  11.1km/h 15.0mph /  24.1km/h 57% 0.00in /  0mm meteobridge W/m2
11:03 70.3 °F /  21.3 °C 52.9 °F /  11.6 °C 29.70in /  1005.6hPa North 11.0mph /  17.7km/h 17.0mph /  27.4km/h 54% 0.00in /  0mm meteobridge W/m2
11:09 70.9 °F /  21.6 °C 53.4 °F /  11.9 °C 29.70in /  1005.6hPa NNE 11.0mph /  17.7km/h 15.0mph /  24.1km/h 54% 0.00in /  0mm meteobridge W/m2
11:15 71.6 °F /  22 °C 52.5 °F /  11.4 °C 29.70in /  1005.6hPa North 11.0mph /  17.7km/h 15.0mph /  24.1km/h 51% 0.00in /  0mm meteobridge W/m2
11:22 72.5 °F /  22.5 °C 52.9 °F /  11.6 °C 29.70in /  1005.6hPa NNE 12.1mph /  19.5km/h 15.0mph /  24.1km/h 50% 0.00in /  0mm meteobridge W/m2
11:28 73.8 °F /  23.2 °C 52.9 °F /  11.6 °C 29.70in /  1005.6hPa NNE 12.1mph /  19.5km/h 17.0mph /  27.4km/h 48% 0.00in /  0mm meteobridge W/m2
11:34 74.7 °F /  23.7 °C 52.0 °F /  11.1 °C 29.69in /  1005.3hPa North 8.9mph /  14.3km/h 16.0mph /  25.7km/h 45% 0.00in /  0mm meteobridge W/m2
11:40 75.7 °F /  24.3 °C 52.3 °F /  11.3 °C 29.69in /  1005.3hPa NNE 12.1mph /  19.5km/h 19.0mph /  30.6km/h 44% 0.00in /  0mm meteobridge W/m2
11:46 76.5 °F /  24.7 °C 52.9 °F /  11.6 °C 29.69in /  1005.3hPa North 11.0mph /  17.7km/h 15.0mph /  24.1km/h 44% 0.00in /  0mm meteobridge W/m2
11:52 76.8 °F /  24.9 °C 52.7 °F /  11.5 °C 29.69in /  1005.3hPa North 14.1mph /  22.7km/h 15.0mph /  24.1km/h 43% 0.00in /  0mm meteobridge W/m2
11:58 77.4 °F /  25.2 °C 52.5 °F /  11.4 °C 29.69in /  1005.3hPa North 8.9mph /  14.3km/h 14.0mph /  22.5km/h 42% 0.00in /  0mm meteobridge W/m2
12:04 76.8 °F /  24.9 °C 52.0 °F /  11.1 °C 29.69in /  1005.3hPa NNE 4.9mph /  7.9km/h 13.0mph /  20.9km/h 42% 0.00in /  0mm meteobridge W/m2
12:11 77.2 °F /  25.1 °C 52.3 °F /  11.3 °C 29.68in /  1005hPa NNE 11.0mph /  17.7km/h 19.0mph /  30.6km/h 42% 0.00in /  0mm meteobridge W/m2
12:17 77.9 °F /  25.5 °C 50.9 °F /  10.5 °C 29.69in /  1005.3hPa NNE 11.0mph /  17.7km/h 18.0mph /  29km/h 39% 0.00in /  0mm meteobridge W/m2
12:23 78.1 °F /  25.6 °C 51.1 °F /  10.6 °C 29.68in /  1005hPa NNE 6.9mph /  11.1km/h 19.0mph /  30.6km/h 39% 0.00in /  0mm meteobridge W/m2
12:29 78.3 °F /  25.7 °C 50.5 °F /  10.3 °C 29.67in /  1004.6hPa NNE 11.0mph /  17.7km/h 22.0mph /  35.4km/h 38% 0.00in /  0mm meteobridge W/m2
12:35 78.1 °F /  25.6 °C 49.6 °F /  9.8 °C 29.68in /  1005hPa NNE 8.1mph /  13km/h 15.0mph /  24.1km/h 37% 0.00in /  0mm meteobridge W/m2
12:41 78.6 °F /  25.9 °C 50.9 °F /  10.5 °C 29.68in /  1005hPa NNE 14.1mph /  22.7km/h 20.0mph /  32.2km/h 38% 0.00in /  0mm meteobridge W/m2
12:47 78.6 °F /  25.9 °C 50.2 °F /  10.1 °C 29.67in /  1004.6hPa East 2.0mph /  3.2km/h 6.0mph /  9.7km/h 37% 0.00in /  0mm meteobridge W/m2
12:54 80.2 °F /  26.8 °C 50.2 °F /  10.1 °C 29.67in /  1004.6hPa NNE 6.9mph /  11.1km/h 15.0mph /  24.1km/h 35% 0.00in /  0mm meteobridge W/m2
12:59 80.4 °F /  26.9 °C 50.2 °F /  10.1 °C 29.67in /  1004.6hPa NE 8.9mph /  14.3km/h 12.0mph /  19.3km/h 35% 0.00in /  0mm meteobridge W/m2
13:22 79.9 °F /  26.6 °C 48.9 °F /  9.4 °C 29.67in /  1004.6hPa North 17.0mph /  27.4km/h 17.0mph /  27.4km/h 34% 0.00in /  0mm meteobridge W/m2
13:28 80.2 °F /  26.8 °C 50.2 °F /  10.1 °C 29.66in /  1004.3hPa NE 6.0mph /  9.7km/h 15.0mph /  24.1km/h 35% 0.00in /  0mm meteobridge W/m2
13:34 80.8 °F /  27.1 °C 50.5 °F /  10.3 °C 29.67in /  1004.6hPa SSE 4.9mph /  7.9km/h 6.0mph /  9.7km/h 35% 0.00in /  0mm meteobridge W/m2
13:40 79.9 °F /  26.6 °C 49.8 °F /  9.9 °C 29.66in /  1004.3hPa NNE 13.0mph /  20.9km/h 19.0mph /  30.6km/h 35% 0.00in /  0mm meteobridge W/m2
13:47 79.2 °F /  26.2 °C 49.1 °F /  9.5 °C 29.66in /  1004.3hPa North 11.0mph /  17.7km/h 12.0mph /  19.3km/h 35% 0.00in /  0mm meteobridge W/m2
13:53 81.1 °F /  27.3 °C 49.3 °F /  9.6 °C 29.66in /  1004.3hPa NE 4.9mph /  7.9km/h 12.0mph /  19.3km/h 33% 0.00in /  0mm meteobridge W/m2
13:59 81.7 °F /  27.6 °C 48.9 °F /  9.4 °C 29.65in /  1003.9hPa North 4.0mph /  6.4km/h 14.0mph /  22.5km/h 32% 0.00in /  0mm meteobridge W/m2
14:05 82.8 °F /  28.2 °C 49.8 °F /  9.9 °C 29.65in /  1003.9hPa Calm   5.0mph /  8km/h 32% 0.00in /  0mm meteobridge W/m2
14:11 82.4 °F /  28 °C 49.6 °F /  9.8 °C 29.65in /  1003.9hPa NNE 10.1mph /  16.3km/h 17.0mph /  27.4km/h 32% 0.00in /  0mm meteobridge W/m2
14:17 81.7 °F /  27.6 °C 49.8 °F /  9.9 °C 29.65in /  1003.9hPa ENE 6.0mph /  9.7km/h 13.0mph /  20.9km/h 33% 0.00in /  0mm meteobridge W/m2
14:23 81.7 °F /  27.6 °C 49.8 °F /  9.9 °C 29.65in /  1003.9hPa SE 4.9mph /  7.9km/h 5.0mph /  8km/h 33% 0.00in /  0mm meteobridge W/m2
14:30 81.0 °F /  27.2 °C 50.0 °F /  10 °C 29.65in /  1003.9hPa NE 2.9mph /  4.7km/h 6.0mph /  9.7km/h 34% 0.00in /  0mm meteobridge W/m2
14:36 82.9 °F /  28.3 °C 50.0 °F /  10 °C 29.65in /  1003.9hPa ESE 4.0mph /  6.4km/h 7.0mph /  11.3km/h 32% 0.00in /  0mm meteobridge W/m2
14:42 86.4 °F /  30.2 °C 51.3 °F /  10.7 °C 29.64in /  1003.6hPa Calm   5.0mph /  8km/h 30% 0.00in /  0mm meteobridge W/m2
14:48 85.6 °F /  29.8 °C 49.8 °F /  9.9 °C 29.64in /  1003.6hPa NE 4.9mph /  7.9km/h 14.0mph /  22.5km/h 29% 0.00in /  0mm meteobridge W/m2
14:54 83.8 °F /  28.8 °C 50.0 °F /  10 °C 29.63in /  1003.3hPa NNE 6.0mph /  9.7km/h 11.0mph /  17.7km/h 31% 0.00in /  0mm meteobridge W/m2
15:00 82.2 °F /  27.9 °C 48.6 °F /  9.2 °C 29.63in /  1003.3hPa North 6.9mph /  11.1km/h 10.0mph /  16.1km/h 31% 0.00in /  0mm meteobridge W/m2
15:06 81.3 °F /  27.4 °C 47.8 °F /  8.8 °C 29.63in /  1003.3hPa North 10.1mph /  16.3km/h 15.0mph /  24.1km/h 31% 0.00in /  0mm meteobridge W/m2
15:12 80.4 °F /  26.9 °C 47.8 °F /  8.8 °C 29.63in /  1003.3hPa NW 2.9mph /  4.7km/h 6.0mph /  9.7km/h 32% 0.00in /  0mm meteobridge W/m2
15:18 81.5 °F /  27.5 °C 48.7 °F /  9.3 °C 29.62in /  1002.9hPa SSE 2.9mph /  4.7km/h 7.0mph /  11.3km/h 32% 0.00in /  0mm meteobridge W/m2
15:24 83.5 °F /  28.6 °C 48.7 °F /  9.3 °C 29.62in /  1002.9hPa NNW 4.0mph /  6.4km/h 6.0mph /  9.7km/h 30% 0.00in /  0mm meteobridge W/m2
15:31 83.7 °F /  28.7 °C 49.8 °F /  9.9 °C 29.62in /  1002.9hPa NNE 4.9mph /  7.9km/h 6.0mph /  9.7km/h 31% 0.00in /  0mm meteobridge W/m2
15:51 83.3 °F /  28.5 °C 48.6 °F /  9.2 °C 29.61in /  1002.6hPa NNE 4.0mph /  6.4km/h 9.0mph /  14.5km/h 30% 0.00in /  0mm meteobridge W/m2
15:57 83.3 °F /  28.5 °C 48.6 °F /  9.2 °C 29.61in /  1002.6hPa NNW 2.9mph /  4.7km/h 5.0mph /  8km/h 30% 0.00in /  0mm meteobridge W/m2
16:03 84.0 °F /  28.9 °C 49.3 °F /  9.6 °C 29.60in /  1002.3hPa North 11.0mph /  17.7km/h 12.0mph /  19.3km/h 30% 0.00in /  0mm meteobridge W/m2
16:09 84.4 °F /  29.1 °C 48.7 °F /  9.3 °C 29.59in /  1001.9hPa NNE 12.1mph /  19.5km/h 14.0mph /  22.5km/h 29% 0.00in /  0mm meteobridge W/m2
16:15 82.8 °F /  28.2 °C 48.2 °F /  9 °C 29.60in /  1002.3hPa North 4.9mph /  7.9km/h 12.0mph /  19.3km/h 30% 0.00in /  0mm meteobridge W/m2
16:22 81.9 °F /  27.7 °C 48.2 °F /  9 °C 29.60in /  1002.3hPa ENE 2.9mph /  4.7km/h 9.0mph /  14.5km/h 31% 0.00in /  0mm meteobridge W/m2
16:28 81.7 °F /  27.6 °C 48.0 °F /  8.9 °C 29.60in /  1002.3hPa NNE 4.9mph /  7.9km/h 10.0mph /  16.1km/h 31% 0.00in /  0mm meteobridge W/m2
16:34 83.1 °F /  28.4 °C 47.7 °F /  8.7 °C 29.60in /  1002.3hPa NE 4.9mph /  7.9km/h 6.0mph /  9.7km/h 29% 0.00in /  0mm meteobridge W/m2
16:40 84.4 °F /  29.1 °C 47.7 °F /  8.7 °C 29.59in /  1001.9hPa NNE 0.9mph /  1.4km/h 5.0mph /  8km/h 28% 0.00in /  0mm meteobridge W/m2
16:46 85.6 °F /  29.8 °C 48.7 °F /  9.3 °C 29.59in /  1001.9hPa NNE 4.9mph /  7.9km/h 5.0mph /  8km/h 28% 0.00in /  0mm meteobridge W/m2
16:52 85.5 °F /  29.7 °C 48.6 °F /  9.2 °C 29.59in /  1001.9hPa Calm   3.0mph /  4.8km/h 28% 0.00in /  0mm meteobridge W/m2
16:58 86.2 °F /  30.1 °C 49.3 °F /  9.6 °C 29.59in /  1001.9hPa SSW 0.9mph /  1.4km/h 4.0mph /  6.4km/h 28% 0.00in /  0mm meteobridge W/m2
17:04 86.7 °F /  30.4 °C 48.7 °F /  9.3 °C 29.58in /  1001.6hPa NE 4.0mph /  6.4km/h 10.0mph /  16.1km/h 27% 0.00in /  0mm meteobridge W/m2
17:10 85.5 °F /  29.7 °C 48.6 °F /  9.2 °C 29.58in /  1001.6hPa NNE 0.9mph /  1.4km/h 10.0mph /  16.1km/h 28% 0.00in /  0mm meteobridge W/m2
17:17 85.3 °F /  29.6 °C 48.6 °F /  9.2 °C 29.58in /  1001.6hPa North 4.0mph /  6.4km/h 16.0mph /  25.7km/h 28% 0.00in /  0mm meteobridge W/m2
17:23 84.9 °F /  29.4 °C 48.2 °F /  9 °C 29.57in /  1001.2hPa NNE 4.9mph /  7.9km/h 10.0mph /  16.1km/h 28% 0.00in /  0mm meteobridge W/m2
17:29 84.6 °F /  29.2 °C 47.8 °F /  8.8 °C 29.57in /  1001.2hPa North 11.0mph /  17.7km/h 15.0mph /  24.1km/h 28% 0.00in /  0mm meteobridge W/m2
17:35 84.4 °F /  29.1 °C 47.7 °F /  8.7 °C 29.57in /  1001.2hPa North 4.9mph /  7.9km/h 12.0mph /  19.3km/h 28% 0.00in /  0mm meteobridge W/m2
17:41 84.6 °F /  29.2 °C 47.8 °F /  8.8 °C 29.57in /  1001.2hPa NNW 0.9mph /  1.4km/h 10.0mph /  16.1km/h 28% 0.00in /  0mm meteobridge W/m2
17:47 84.7 °F /  29.3 °C 48.0 °F /  8.9 °C 29.57in /  1001.2hPa NNE 4.9mph /  7.9km/h 13.0mph /  20.9km/h 28% 0.00in /  0mm meteobridge W/m2
17:53 84.0 °F /  28.9 °C 47.5 °F /  8.6 °C 29.57in /  1001.2hPa NNE 6.0mph /  9.7km/h 12.0mph /  19.3km/h 28% 0.00in /  0mm meteobridge W/m2
17:59 84.4 °F /  29.1 °C 47.7 °F /  8.7 °C 29.57in /  1001.2hPa Calm   3.0mph /  4.8km/h 28% 0.00in /  0mm meteobridge W/m2
18:05 84.4 °F /  29.1 °C 47.7 °F /  8.7 °C 29.57in /  1001.2hPa North 6.0mph /  9.7km/h 7.0mph /  11.3km/h 28% 0.00in /  0mm meteobridge W/m2
18:11 82.9 °F /  28.3 °C 46.4 °F /  8 °C 29.57in /  1001.2hPa SE 4.0mph /  6.4km/h 9.0mph /  14.5km/h 28% 0.00in /  0mm meteobridge W/m2
18:17 82.2 °F /  27.9 °C 46.8 °F /  8.2 °C 29.57in /  1001.2hPa Calm     29% 0.00in /  0mm meteobridge W/m2
18:23 81.9 °F /  27.7 °C 46.4 °F /  8 °C 29.57in /  1001.2hPa NW 0.9mph /  1.4km/h 3.0mph /  4.8km/h 29% 0.00in /  0mm meteobridge W/m2
18:30 81.7 °F /  27.6 °C 46.4 °F /  8 °C 29.57in /  1001.2hPa NNE 4.0mph /  6.4km/h 4.0mph /  6.4km/h 29% 0.00in /  0mm meteobridge W/m2
18:36 81.7 °F /  27.6 °C 46.4 °F /  8 °C 29.57in /  1001.2hPa NNE 4.0mph /  6.4km/h -999.0mph /  -1607.7km/h 29% 0.00in /  0mm meteobridge W/m2
18:41 81.7 °F /  27.6 °C 46.4 °F /  8 °C 29.57in /  1001.2hPa NNE 4.0mph /  6.4km/h -999.0mph /  -1607.7km/h 29% 0.00in /  0mm meteobridge W/m2
18:48 81.7 °F /  27.6 °C 46.4 °F /  8 °C 29.57in /  1001.2hPa North -999.9mph /  -1609.1km/h -999.0mph /  -1607.7km/h 29% 0.00in /  0mm meteobridge W/m2
Regenstein, Windhoek, Namibia
Compliments of Weather Underground - 2.5 mb